createdAt,value
2023-02-18T00:02:20.480Z,9.70
2023-02-18T00:04:46.853Z,9.71
2023-02-18T00:07:13.306Z,9.72
2023-02-18T00:09:39.713Z,9.73
2023-02-18T00:12:06.368Z,9.74
2023-02-18T00:14:32.797Z,9.77
2023-02-18T00:16:59.157Z,9.76
2023-02-18T00:19:25.491Z,9.71
2023-02-18T00:21:51.846Z,9.74
2023-02-18T00:24:18.338Z,9.69
2023-02-18T00:26:45.564Z,9.68
2023-02-18T00:29:12.320Z,9.69
2023-02-18T00:31:39.577Z,9.67
2023-02-18T00:34:06.456Z,9.67
2023-02-18T00:36:33.504Z,9.69
2023-02-18T00:39:03.492Z,9.66
2023-02-18T00:41:30.794Z,9.64
2023-02-18T00:43:57.184Z,9.63
2023-02-18T00:46:25.632Z,9.64
2023-02-18T00:48:52.031Z,9.65
2023-02-18T00:51:18.407Z,9.62
2023-02-18T00:53:44.827Z,9.62
2023-02-18T00:56:11.312Z,9.64
2023-02-18T00:58:38.532Z,9.62
2023-02-18T01:01:07.538Z,9.59
2023-02-18T01:03:34.863Z,9.56
2023-02-18T01:06:01.277Z,9.57
2023-02-18T01:08:27.702Z,9.56
2023-02-18T01:10:56.084Z,9.55
2023-02-18T01:13:24.416Z,9.53
2023-02-18T01:15:51.435Z,9.50
2023-02-18T01:18:17.922Z,9.48
2023-02-18T01:20:44.824Z,9.44
2023-02-18T01:23:12.949Z,9.42
2023-02-18T01:25:40.207Z,9.42
2023-02-18T01:28:08.512Z,9.39
2023-02-18T01:30:35.158Z,9.39
2023-02-18T01:33:01.641Z,9.33
2023-02-18T01:35:28.434Z,9.31
2023-02-18T01:37:54.808Z,9.30
2023-02-18T01:40:24.108Z,9.30
2023-02-18T01:42:50.556Z,9.27
2023-02-18T01:45:35.436Z,9.22
2023-02-18T01:48:04.688Z,9.22
2023-02-18T01:50:35.859Z,9.26
2023-02-18T01:53:02.973Z,9.23
2023-02-18T01:55:29.480Z,9.22
2023-02-18T01:57:56.105Z,9.24
2023-02-18T02:00:23.000Z,9.23
2023-02-18T02:02:52.362Z,9.26
2023-02-18T02:05:22.108Z,9.26
2023-02-18T02:07:51.764Z,9.22
2023-02-18T02:10:19.689Z,9.22
2023-02-18T02:13:00.495Z,9.24
2023-02-18T02:15:47.256Z,9.20
2023-02-18T02:18:36.801Z,9.19
2023-02-18T02:21:37.200Z,9.18
2023-02-18T02:24:32.815Z,9.22
2023-02-18T02:27:14.681Z,9.23
2023-02-18T02:30:18.661Z,9.24
2023-02-18T02:33:19.932Z,9.26
2023-02-18T02:35:52.489Z,9.22
2023-02-18T02:38:29.551Z,9.24
2023-02-18T02:41:10.124Z,9.25
2023-02-18T02:43:51.684Z,9.25
2023-02-18T02:46:19.723Z,9.24
2023-02-18T02:48:58.321Z,9.25
2023-02-18T02:51:35.913Z,9.26
2023-02-18T02:54:24.922Z,9.27
2023-02-18T02:57:07.476Z,9.29
2023-02-18T02:59:38.017Z,9.27
2023-02-18T03:02:29.136Z,9.27
2023-02-18T03:05:45.733Z,9.27
2023-02-18T03:08:38.114Z,9.30
2023-02-18T03:11:07.435Z,9.29
2023-02-18T03:14:09.016Z,9.30
2023-02-18T03:16:44.277Z,9.32
2023-02-18T03:19:14.092Z,9.32
2023-02-18T03:22:00.432Z,9.32
2023-02-18T03:24:31.982Z,9.33
2023-02-18T03:27:06.159Z,9.35
2023-02-18T03:29:33.630Z,9.38
2023-02-18T03:32:05.489Z,9.39
2023-02-18T03:34:38.136Z,9.38
2023-02-18T03:37:05.893Z,9.40
2023-02-18T03:39:35.232Z,9.40
2023-02-18T03:42:01.649Z,9.39
2023-02-18T03:44:28.046Z,9.40
2023-02-18T03:46:54.598Z,9.40
2023-02-18T03:49:21.107Z,9.42
2023-02-18T03:51:47.749Z,9.42
2023-02-18T03:54:14.694Z,9.43
2023-02-18T03:56:41.448Z,9.43
2023-02-18T03:59:08.167Z,9.44
2023-02-18T04:01:35.681Z,9.44
2023-02-18T04:04:03.094Z,9.44
2023-02-18T04:06:29.589Z,9.45
2023-02-18T04:08:55.956Z,9.46
2023-02-18T04:11:22.274Z,9.47
2023-02-18T04:13:48.769Z,9.47
2023-02-18T04:16:15.275Z,9.48
2023-02-18T04:18:41.707Z,9.49
2023-02-18T04:21:08.156Z,9.51
2023-02-18T04:23:34.622Z,9.51
2023-02-18T04:26:01.036Z,9.52
2023-02-18T04:28:27.422Z,9.51
2023-02-18T04:30:53.773Z,9.52
2023-02-18T04:33:20.147Z,9.53
2023-02-18T04:35:46.490Z,9.53
2023-02-18T04:38:12.951Z,9.56
2023-02-18T04:40:39.368Z,9.55
2023-02-18T04:43:05.732Z,9.56
2023-02-18T04:45:32.212Z,9.56
2023-02-18T04:47:58.602Z,9.57
2023-02-18T04:50:25.036Z,9.56
2023-02-18T04:52:51.433Z,9.56
2023-02-18T04:55:17.850Z,9.56
2023-02-18T04:57:44.204Z,9.56
2023-02-18T05:00:15.360Z,9.55
2023-02-18T05:02:41.918Z,9.55
2023-02-18T05:05:08.574Z,9.53
2023-02-18T05:07:35.305Z,9.53
2023-02-18T05:10:01.709Z,9.52
2023-02-18T05:12:28.066Z,9.52
2023-02-18T05:14:54.458Z,9.51
2023-02-18T05:17:20.912Z,9.51
2023-02-18T05:19:47.316Z,9.51
2023-02-18T05:22:13.829Z,9.52
2023-02-18T05:24:40.256Z,9.50
2023-02-18T05:27:06.686Z,9.50
2023-02-18T05:29:33.013Z,9.49
2023-02-18T05:31:59.439Z,9.49
2023-02-18T05:34:25.871Z,9.49
2023-02-18T05:36:52.928Z,9.49
2023-02-18T05:39:19.269Z,9.49
2023-02-18T05:41:45.605Z,9.48
2023-02-18T05:44:30.344Z,9.47
2023-02-18T05:47:04.560Z,9.49
2023-02-18T05:49:32.446Z,9.49
2023-02-18T05:51:59.337Z,9.50
2023-02-18T05:54:26.788Z,9.50
2023-02-18T05:56:53.621Z,9.51
2023-02-18T05:59:20.595Z,9.52
2023-02-18T06:01:47.653Z,9.52
2023-02-18T06:04:14.811Z,9.53
2023-02-18T06:06:41.408Z,9.52
2023-02-18T06:09:08.398Z,9.54
2023-02-18T06:11:35.173Z,9.55
2023-02-18T06:14:01.980Z,9.56
2023-02-18T06:16:29.141Z,9.54
2023-02-18T06:18:55.707Z,9.56
2023-02-18T06:21:22.087Z,9.56
2023-02-18T06:23:48.505Z,9.57
2023-02-18T06:26:15.143Z,9.56
2023-02-18T06:28:41.546Z,9.57
2023-02-18T06:31:07.991Z,9.57
2023-02-18T06:33:34.654Z,9.59
2023-02-18T06:36:07.726Z,9.58
2023-02-18T06:38:38.309Z,9.60
2023-02-18T06:41:05.296Z,9.59
2023-02-18T06:43:31.736Z,9.57
2023-02-18T06:45:58.170Z,9.59
2023-02-18T06:48:24.752Z,9.57
2023-02-18T06:50:51.330Z,9.57
2023-02-18T06:53:17.870Z,9.57
2023-02-18T06:55:44.931Z,9.56
2023-02-18T06:58:12.672Z,9.55
2023-02-18T07:00:39.174Z,9.53
2023-02-18T07:03:06.106Z,9.52
2023-02-18T07:05:32.837Z,9.50
2023-02-18T07:07:59.162Z,9.49
2023-02-18T07:10:25.645Z,9.50
2023-02-18T07:12:52.001Z,9.49
2023-02-18T07:15:21.441Z,9.48
2023-02-18T07:17:47.771Z,9.49
2023-02-18T07:20:14.085Z,9.48
2023-02-18T07:22:40.418Z,9.47
2023-02-18T07:25:07.218Z,9.48
2023-02-18T07:27:33.595Z,9.48
2023-02-18T07:29:59.963Z,9.48
2023-02-18T07:32:26.377Z,9.47
2023-02-18T07:34:52.958Z,9.46
2023-02-18T07:37:20.533Z,9.45
2023-02-18T07:39:47.337Z,9.45
2023-02-18T07:42:14.299Z,9.43
2023-02-18T07:44:41.793Z,9.44
2023-02-18T07:47:12.056Z,9.43
2023-02-18T07:49:38.437Z,9.43
2023-02-18T07:52:05.564Z,9.44
2023-02-18T07:54:32.281Z,9.44
2023-02-18T07:56:58.661Z,9.44
2023-02-18T07:59:25.092Z,9.44
2023-02-18T08:01:51.480Z,9.43
2023-02-18T08:04:18.053Z,9.42
2023-02-18T08:06:47.537Z,9.42
2023-02-18T08:09:14.812Z,9.42
2023-02-18T08:11:41.820Z,9.40
2023-02-18T08:14:08.225Z,9.40
2023-02-18T08:16:35.320Z,9.39
2023-02-18T08:19:03.574Z,9.36
2023-02-18T08:21:30.717Z,9.36
2023-02-18T08:23:58.465Z,9.34
2023-02-18T08:26:25.500Z,9.32
2023-02-18T08:28:52.131Z,9.30
2023-02-18T08:31:21.755Z,9.29
2023-02-18T08:33:48.962Z,9.28
2023-02-18T08:36:15.442Z,9.23
2023-02-18T08:38:42.007Z,9.24
2023-02-18T08:41:09.788Z,9.22
2023-02-18T08:43:37.012Z,9.22
2023-02-18T08:46:04.311Z,9.21
2023-02-18T08:48:30.812Z,9.19
2023-02-18T08:50:57.448Z,9.18
2023-02-18T08:53:24.265Z,9.18
2023-02-18T08:55:51.048Z,9.18
2023-02-18T08:58:17.715Z,9.16
2023-02-18T09:00:45.065Z,9.16
2023-02-18T09:03:15.229Z,9.14
2023-02-18T09:05:41.725Z,9.11
2023-02-18T09:08:08.215Z,9.11
2023-02-18T09:10:34.859Z,9.10
2023-02-18T09:13:01.378Z,9.09
2023-02-18T09:15:27.862Z,9.09
2023-02-18T09:17:54.273Z,9.08
2023-02-18T09:20:20.997Z,9.08
2023-02-18T09:22:47.468Z,9.08
2023-02-18T09:25:13.901Z,9.09
2023-02-18T09:27:40.320Z,9.11
2023-02-18T09:30:07.317Z,9.12
2023-02-18T09:32:35.333Z,9.14
2023-02-18T09:35:03.088Z,9.14
2023-02-18T09:37:29.705Z,9.15
2023-02-18T09:39:56.090Z,9.15
2023-02-18T09:42:29.842Z,9.17
2023-02-18T09:45:00.222Z,9.19
2023-02-18T09:47:43.041Z,9.21
2023-02-18T09:50:23.212Z,9.21
2023-02-18T09:52:49.856Z,9.22
2023-02-18T09:55:21.023Z,9.22
2023-02-18T09:57:51.029Z,9.23
2023-02-18T10:00:22.809Z,9.24
2023-02-18T10:03:00.111Z,9.25
2023-02-18T10:05:29.725Z,9.26
2023-02-18T10:08:01.891Z,9.29
2023-02-18T10:10:44.599Z,9.30
2023-02-18T10:13:23.017Z,9.32
2023-02-18T10:15:50.626Z,9.36
2023-02-18T10:21:15.379Z,9.43
2023-02-18T10:23:53.440Z,9.47
2023-02-18T10:26:21.059Z,9.49
2023-02-18T10:28:47.694Z,9.52
2023-02-18T10:31:22.421Z,9.53
2023-02-18T10:34:06.269Z,9.54
2023-02-18T10:36:36.046Z,9.58
2023-02-18T10:39:21.214Z,9.59
2023-02-18T10:42:05.398Z,9.64
2023-02-18T10:44:46.278Z,9.67
2023-02-18T10:47:24.845Z,9.72
2023-02-18T10:50:01.069Z,9.76
2023-02-18T10:52:31.730Z,9.79
2023-02-18T10:55:09.425Z,9.81
2023-02-18T10:57:46.778Z,9.85
2023-02-18T11:00:24.134Z,9.88
2023-02-18T11:03:22.834Z,9.89
2023-02-18T11:05:52.985Z,9.92
2023-02-18T11:08:26.432Z,9.93
2023-02-18T11:10:53.885Z,9.96
2023-02-18T11:13:34.909Z,9.99
2023-02-18T11:16:04.971Z,10.04
2023-02-18T11:18:37.743Z,10.06
2023-02-18T11:21:26.743Z,10.11
2023-02-18T11:23:55.009Z,10.13
2023-02-18T11:26:30.466Z,10.14
2023-02-18T11:29:01.545Z,10.15
2023-02-18T11:31:40.986Z,10.14
2023-02-18T11:34:16.586Z,10.15
2023-02-18T11:36:43.095Z,10.15
2023-02-18T11:39:46.589Z,10.15
2023-02-18T11:42:15.128Z,10.12
2023-02-18T11:44:49.768Z,10.10
2023-02-18T11:47:16.017Z,10.07
2023-02-18T11:49:44.303Z,10.06
2023-02-18T11:52:41.466Z,10.06
2023-02-18T11:55:22.851Z,10.05
2023-02-18T11:57:52.345Z,10.08
2023-02-18T12:00:43.089Z,10.08
2023-02-18T12:03:25.433Z,10.08
2023-02-18T12:05:52.433Z,10.11
2023-02-18T12:08:27.069Z,10.12
2023-02-18T12:11:00.025Z,10.14
2023-02-18T12:13:32.336Z,10.13
2023-02-18T12:16:36.173Z,10.14
2023-02-18T12:19:13.869Z,10.16
2023-02-18T12:21:53.893Z,10.17
2023-02-18T12:24:37.256Z,10.20
2023-02-18T12:27:14.628Z,10.23
2023-02-18T12:29:52.834Z,10.25
2023-02-18T12:32:46.143Z,10.27
2023-02-18T12:35:27.784Z,10.30
2023-02-18T12:38:08.782Z,10.33
2023-02-18T12:41:10.562Z,10.36
2023-02-18T12:44:10.581Z,10.38
2023-02-18T12:47:04.665Z,10.39
2023-02-18T12:49:30.965Z,10.43
2023-02-18T12:52:18.104Z,10.47
2023-02-18T12:54:59.493Z,10.48
2023-02-18T12:57:52.999Z,10.53
2023-02-18T13:00:35.812Z,10.57
2023-02-18T13:03:27.592Z,10.61
2023-02-18T13:06:09.688Z,10.63
2023-02-18T13:08:55.041Z,10.65
2023-02-18T13:11:32.741Z,10.67
2023-02-18T13:14:04.635Z,10.70
2023-02-18T13:16:32.459Z,10.70
2023-02-18T13:19:03.378Z,10.67
2023-02-18T13:21:31.883Z,10.65
2023-02-18T13:24:10.065Z,10.65
2023-02-18T13:26:36.557Z,10.64
2023-02-18T13:29:17.921Z,10.70
2023-02-18T13:31:57.572Z,10.71
2023-02-18T13:34:40.037Z,10.72
2023-02-18T13:37:16.284Z,10.72
2023-02-18T13:39:53.409Z,10.74
2023-02-18T13:42:25.493Z,10.74
2023-02-18T13:44:54.866Z,10.78
2023-02-18T13:47:39.675Z,10.77
2023-02-18T13:50:27.471Z,10.77
2023-02-18T13:53:09.319Z,10.78
2023-02-18T13:55:39.691Z,10.78
2023-02-18T13:58:15.218Z,10.80
2023-02-18T14:00:49.813Z,10.82
2023-02-18T14:03:36.082Z,10.88
2023-02-18T14:06:12.904Z,10.90
2023-02-18T14:08:39.859Z,10.94
2023-02-18T14:11:33.128Z,10.94
2023-02-18T14:13:59.397Z,10.95
2023-02-18T14:16:25.966Z,10.98
2023-02-18T14:18:59.187Z,10.99
2023-02-18T14:21:42.585Z,11.02
2023-02-18T14:24:11.671Z,11.05
2023-02-18T14:26:44.602Z,11.06
2023-02-18T14:29:16.653Z,11.06
2023-02-18T14:32:09.364Z,11.08
2023-02-18T14:35:04.863Z,11.11
2023-02-18T14:37:40.165Z,11.11
2023-02-18T14:40:28.292Z,11.15
2023-02-18T14:43:07.509Z,11.15
2023-02-18T14:46:01.986Z,11.15
2023-02-18T14:48:47.227Z,11.18
2023-02-18T14:51:21.537Z,11.17
2023-02-18T14:53:48.437Z,11.16
2023-02-18T14:56:18.425Z,11.14
2023-02-18T14:58:52.222Z,11.14
2023-02-18T15:01:24.770Z,11.14
2023-02-18T15:03:54.391Z,11.15
2023-02-18T15:06:30.985Z,11.15
2023-02-18T15:09:17.170Z,11.15
2023-02-18T15:11:49.718Z,11.13
2023-02-18T15:14:42.218Z,11.14
2023-02-18T15:17:16.386Z,11.14
2023-02-18T15:19:48.991Z,11.16
2023-02-18T15:22:18.904Z,11.14
2023-02-18T15:24:45.976Z,11.14
2023-02-18T15:27:15.341Z,11.14
2023-02-18T15:29:42.266Z,11.14
2023-02-18T15:32:22.571Z,11.13
2023-02-18T15:34:56.181Z,11.12
2023-02-18T15:37:22.568Z,11.14
2023-02-18T15:39:49.225Z,11.14
2023-02-18T15:42:35.958Z,11.14
2023-02-18T15:45:19.839Z,11.12
2023-02-18T15:47:57.580Z,11.10
2023-02-18T15:50:27.519Z,11.09
2023-02-18T15:52:57.005Z,11.11
2023-02-18T15:55:34.044Z,11.09
2023-02-18T15:58:03.980Z,11.07
2023-02-18T16:00:35.090Z,11.05
2023-02-18T16:03:13.176Z,11.01
2023-02-18T16:05:42.133Z,10.98
2023-02-18T16:08:26.352Z,10.97
2023-02-18T16:11:03.126Z,10.95
2023-02-18T16:13:31.361Z,10.92
2023-02-18T16:16:06.628Z,10.88
2023-02-18T16:18:41.435Z,10.86
2023-02-18T16:21:19.761Z,10.85
2023-02-18T16:23:56.316Z,10.81
2023-02-18T16:26:29.043Z,10.79
2023-02-18T16:29:21.042Z,10.79
2023-02-18T16:31:47.751Z,10.77
2023-02-18T16:34:14.117Z,10.75
2023-02-18T16:37:00.499Z,10.74
2023-02-18T16:39:30.818Z,10.72
2023-02-18T16:41:57.262Z,10.72
2023-02-18T16:44:23.701Z,10.71
2023-02-18T16:46:50.109Z,10.69
2023-02-18T16:49:17.142Z,10.69
2023-02-18T16:51:44.061Z,10.67
2023-02-18T16:54:14.085Z,10.65
2023-02-18T16:56:40.616Z,10.64
2023-02-18T16:59:07.207Z,10.65
2023-02-18T17:01:44.015Z,10.63
2023-02-18T17:04:16.047Z,10.62
2023-02-18T17:06:43.463Z,10.61
2023-02-18T17:09:18.155Z,10.60
2023-02-18T17:11:46.853Z,10.59
2023-02-18T17:14:15.210Z,10.59
2023-02-18T17:16:41.552Z,10.57
2023-02-18T17:19:07.938Z,10.56
2023-02-18T17:21:35.264Z,10.54
2023-02-18T17:24:02.121Z,10.53
2023-02-18T17:26:30.020Z,10.51
2023-02-18T17:28:58.452Z,10.49
2023-02-18T17:31:27.613Z,10.49
2023-02-18T17:33:56.544Z,10.49
2023-02-18T17:36:23.058Z,10.47
2023-02-18T17:38:49.434Z,10.46
2023-02-18T17:41:16.456Z,10.44
2023-02-18T17:43:42.814Z,10.43
2023-02-18T17:46:15.026Z,10.42
2023-02-18T17:48:42.362Z,10.41
2023-02-18T17:51:22.539Z,10.41
2023-02-18T17:53:48.945Z,10.40
2023-02-18T17:56:15.599Z,10.39
2023-02-18T17:58:42.058Z,10.39
2023-02-18T18:01:10.390Z,10.37
2023-02-18T18:03:36.958Z,10.34
2023-02-18T18:06:04.485Z,10.34
2023-02-18T18:08:31.276Z,10.32
2023-02-18T18:11:00.170Z,10.32
2023-02-18T18:13:29.160Z,10.31
2023-02-18T18:15:57.936Z,10.28
2023-02-18T18:18:25.431Z,10.26
2023-02-18T18:20:54.318Z,10.22
2023-02-18T18:23:21.582Z,10.18
2023-02-18T18:25:53.788Z,10.17
2023-02-18T18:28:20.384Z,10.16
2023-02-18T18:30:49.999Z,10.15
2023-02-18T18:33:29.366Z,10.13
2023-02-18T18:35:57.247Z,10.13
2023-02-18T18:38:26.178Z,10.12
2023-02-18T18:40:53.834Z,10.10
2023-02-18T18:43:26.419Z,10.10
2023-02-18T18:45:53.422Z,10.08
2023-02-18T18:48:21.084Z,10.05
2023-02-18T18:50:49.338Z,10.03
2023-02-18T18:53:33.871Z,10.02
2023-02-18T18:56:03.765Z,10.04
2023-02-18T18:58:31.529Z,10.05
2023-02-18T19:01:01.395Z,10.05
2023-02-18T19:03:28.979Z,10.06
2023-02-18T19:05:55.916Z,10.05
2023-02-18T19:08:22.337Z,10.03
2023-02-18T19:10:57.137Z,10.04
2023-02-18T19:13:29.914Z,10.03
2023-02-18T19:16:27.241Z,10.04
2023-02-18T19:18:54.261Z,10.02
2023-02-18T19:21:20.685Z,10.01
2023-02-18T19:23:47.121Z,10.01
2023-02-18T19:26:14.897Z,9.99
2023-02-18T19:28:41.614Z,9.98
2023-02-18T19:31:11.602Z,9.98
2023-02-18T19:33:39.120Z,9.96
2023-02-18T19:36:10.504Z,9.97
2023-02-18T19:38:37.421Z,9.97
2023-02-18T19:41:14.589Z,9.94
2023-02-18T19:43:41.995Z,9.95
2023-02-18T19:46:10.736Z,9.96
2023-02-18T19:48:37.892Z,9.95
2023-02-18T19:51:05.282Z,9.94
2023-02-18T19:53:31.717Z,9.93
2023-02-18T19:56:02.007Z,9.93
2023-02-18T19:58:29.105Z,9.95
2023-02-18T20:00:56.572Z,9.96
2023-02-18T20:03:22.963Z,9.93
2023-02-18T20:05:49.490Z,9.92
2023-02-18T20:08:15.862Z,9.91
2023-02-18T20:10:42.258Z,9.92
2023-02-18T20:13:11.385Z,9.91
2023-02-18T20:15:41.291Z,9.90
2023-02-18T20:18:07.945Z,9.90
2023-02-18T20:20:34.282Z,9.88
2023-02-18T20:23:00.700Z,9.87
2023-02-18T20:25:28.222Z,9.87
2023-02-18T20:28:00.823Z,9.85
2023-02-18T20:30:28.013Z,9.84
2023-02-18T20:32:54.377Z,9.84
2023-02-18T20:35:20.771Z,9.86
2023-02-18T20:37:47.205Z,9.83
2023-02-18T20:40:13.673Z,9.83
2023-02-18T20:42:41.924Z,9.85
2023-02-18T20:45:09.102Z,9.82
2023-02-18T20:47:35.450Z,9.82
2023-02-18T20:50:01.819Z,9.83
2023-02-18T20:52:28.308Z,9.83
2023-02-18T20:54:54.685Z,9.82
2023-02-18T20:57:21.069Z,9.80
2023-02-18T20:59:47.461Z,9.79
2023-02-18T21:02:14.605Z,9.80
2023-02-18T21:04:41.019Z,9.80
2023-02-18T21:07:07.380Z,9.79
2023-02-18T21:09:33.778Z,9.83
2023-02-18T21:12:00.147Z,9.83
2023-02-18T21:14:26.551Z,9.83
2023-02-18T21:16:52.939Z,9.82
2023-02-18T21:19:19.347Z,9.81
2023-02-18T21:21:47.387Z,9.81
2023-02-18T21:24:14.139Z,9.82
2023-02-18T21:26:40.525Z,9.82
2023-02-18T21:29:08.512Z,9.83
2023-02-18T21:31:37.872Z,9.82
2023-02-18T21:34:06.217Z,9.81
2023-02-18T21:36:33.712Z,9.81
2023-02-18T21:39:02.496Z,9.81
2023-02-18T21:41:29.783Z,9.81
2023-02-18T21:43:56.558Z,9.82
2023-02-18T21:46:25.766Z,9.83
2023-02-18T21:49:10.659Z,9.82
2023-02-18T21:51:56.304Z,9.79
2023-02-18T21:54:35.892Z,9.77
2023-02-18T21:57:04.100Z,9.74
2023-02-18T21:59:31.325Z,9.75
2023-02-18T22:02:02.014Z,9.75
2023-02-18T22:04:33.125Z,9.74
2023-02-18T22:07:00.019Z,9.74
2023-02-18T22:09:27.166Z,9.73
2023-02-18T22:11:54.014Z,9.71
2023-02-18T22:14:20.371Z,9.71
2023-02-18T22:16:46.860Z,9.71
2023-02-18T22:19:14.452Z,9.72
2023-02-18T22:21:41.592Z,9.71
2023-02-18T22:24:08.402Z,9.70
2023-02-18T22:26:35.157Z,9.72
2023-02-18T22:29:01.790Z,9.70
2023-02-18T22:31:30.167Z,9.68
2023-02-18T22:33:57.885Z,9.69
2023-02-18T22:36:25.745Z,9.71
2023-02-18T22:38:53.939Z,9.71
2023-02-18T22:41:22.885Z,9.70
2023-02-18T22:44:03.348Z,9.70
2023-02-18T22:46:31.137Z,9.72
2023-02-18T22:48:59.508Z,9.69
2023-02-18T22:51:31.496Z,9.72
2023-02-18T22:53:59.443Z,9.73
2023-02-18T22:56:27.990Z,9.70
2023-02-18T22:58:55.680Z,9.69
2023-02-18T23:01:31.114Z,9.71
2023-02-18T23:04:02.388Z,9.70
2023-02-18T23:06:29.106Z,9.69
2023-02-18T23:08:56.428Z,9.68
2023-02-18T23:11:22.846Z,9.68
2023-02-18T23:14:07.924Z,9.67
2023-02-18T23:16:54.992Z,9.67
2023-02-18T23:19:21.720Z,9.67
2023-02-18T23:21:48.350Z,9.67
2023-02-18T23:24:14.872Z,9.68
2023-02-18T23:26:41.653Z,9.66
2023-02-18T23:29:08.589Z,9.66
2023-02-18T23:31:37.699Z,9.64
2023-02-18T23:34:06.295Z,9.66
2023-02-18T23:36:34.751Z,9.64
2023-02-18T23:39:04.690Z,9.67
2023-02-18T23:41:31.530Z,9.63
2023-02-18T23:43:57.859Z,9.62
2023-02-18T23:46:26.518Z,9.62
2023-02-18T23:48:52.874Z,9.62
2023-02-18T23:51:21.463Z,9.62
2023-02-18T23:53:48.291Z,9.62
2023-02-18T23:56:16.077Z,9.59
2023-02-18T23:58:44.473Z,9.59
